createdAt,value
2018-07-17T06:01:54.427Z,46.4
2018-07-17T06:02:44.115Z,46.9
2018-07-17T06:03:34.515Z,47.3
2018-07-17T06:04:24.268Z,47.7
2018-07-17T06:05:14.356Z,48.1
2018-07-17T06:06:04.685Z,48.4
2018-07-17T06:06:54.468Z,48.8
2018-07-17T06:07:44.512Z,49.1
2018-07-17T06:08:34.877Z,49.6
2018-07-17T06:09:24.956Z,50
2018-07-17T06:10:15.247Z,50.4
2018-07-17T06:11:05.071Z,50.8
2018-07-17T06:11:55.136Z,51.2
2018-07-17T06:12:45.213Z,51.8
2018-07-17T06:13:34.995Z,52.3
2018-07-17T06:14:25.335Z,52.9
2018-07-17T06:15:15.381Z,53.5
2018-07-17T06:16:05.476Z,54.1
2018-07-17T06:16:55.553Z,54.3
2018-07-17T06:17:45.576Z,54.6
2018-07-17T06:18:35.642Z,54.8
2018-07-17T06:19:25.445Z,54.9
2018-07-17T06:20:15.852Z,55.1
2018-07-17T06:21:05.667Z,55.1
2018-07-17T06:21:55.692Z,55.3
2018-07-17T06:22:45.694Z,55.3
2018-07-17T06:23:35.736Z,55.4
2018-07-17T06:24:25.555Z,55.6
2018-07-17T06:25:16.468Z,55.8
2018-07-17T06:26:06.231Z,56
2018-07-17T06:26:56.298Z,56.2
2018-07-17T06:27:46.073Z,56.3
2018-07-17T06:28:36.405Z,56.2
2018-07-17T06:29:26.512Z,56.2
2018-07-17T06:30:16.257Z,56.1
2018-07-17T06:31:06.356Z,56
2018-07-17T06:31:56.656Z,55.9
2018-07-17T06:32:46.714Z,55.6
2018-07-17T06:33:36.852Z,55.4
2018-07-17T06:34:26.345Z,55.3
2018-07-17T06:35:16.956Z,55.3
2018-07-17T06:36:06.725Z,55.5
2018-07-17T06:36:56.797Z,55.8
2018-07-17T06:37:46.930Z,55.9
2018-07-17T06:38:37.210Z,56
2018-07-17T06:39:26.697Z,55.9
2018-07-17T06:40:17.035Z,55.8
2018-07-17T06:41:07.102Z,55.7
2018-07-17T06:41:57.159Z,55.5
2018-07-17T06:42:47.505Z,55.4
2018-07-17T06:43:37.326Z,55.2
2018-07-17T06:44:27.379Z,55
2018-07-17T06:45:17.736Z,54.8
2018-07-17T06:46:07.762Z,54.5
2018-07-17T06:46:57.554Z,54.2
2018-07-17T06:47:47.896Z,53.9
2018-07-17T06:48:37.424Z,53.6
2018-07-17T06:49:28.010Z,53.4
2018-07-17T06:50:18.409Z,53.1
2018-07-17T06:51:07.907Z,52.9
2018-07-17T06:51:57.661Z,52.7
2018-07-17T06:52:48.320Z,52.3
2018-07-17T06:54:28.134Z,51.6
2018-07-17T06:55:18.466Z,51.2
2018-07-17T06:56:08.524Z,50.8
2018-07-17T06:56:58.611Z,50.5
2018-07-17T06:57:48.378Z,50.1
2018-07-17T06:58:38.449Z,49.8
2018-07-17T06:59:28.234Z,49.3
2018-07-17T07:00:18.855Z,49
2018-07-17T07:01:08.909Z,48.6
2018-07-17T07:01:59.009Z,48.1
2018-07-17T07:02:48.775Z,47.7
2018-07-17T07:03:38.814Z,47.3
2018-07-17T07:04:28.664Z,47
2018-07-17T07:05:19.194Z,46.8
2018-07-17T07:06:09.312Z,46.6
2018-07-17T07:06:59.115Z,46.4
2018-07-17T07:07:49.446Z,46.2
2018-07-17T07:08:39.124Z,46.1
2018-07-17T07:09:29.602Z,45.9
2018-07-17T07:10:19.669Z,45.8
2018-07-17T07:11:09.952Z,45.7
2018-07-17T07:11:59.741Z,45.5
2018-07-17T07:12:49.286Z,45.4
2018-07-17T07:13:39.313Z,45.3
2018-07-17T07:14:29.979Z,45.1
2018-07-17T07:15:19.729Z,44.9
2018-07-17T07:16:10.094Z,44.6
2018-07-17T07:16:59.618Z,44.3
2018-07-17T07:17:49.932Z,44.1
2018-07-17T07:18:39.711Z,43.9
2018-07-17T07:19:30.332Z,43.8
2018-07-17T07:20:20.443Z,43.6
2018-07-17T07:21:10.474Z,43.3
2018-07-17T07:22:00.579Z,43.2
2018-07-17T07:22:50.327Z,43
2018-07-17T07:23:40.675Z,42.9
2018-07-17T07:24:30.739Z,42.7
2018-07-17T07:25:20.279Z,42.5
2018-07-17T07:26:10.923Z,42.3
2018-07-17T07:27:00.915Z,42.1
2018-07-17T07:27:51.005Z,41.9
2018-07-17T07:28:41.081Z,41.8
2018-07-17T07:29:30.833Z,41.6
2018-07-17T07:30:20.875Z,41.4
2018-07-17T07:31:10.985Z,41.3
2018-07-17T07:32:01.323Z,41.2
2018-07-17T07:32:51.097Z,41
2018-07-17T07:33:41.149Z,40.9
2018-07-17T07:34:31.330Z,40.7
2018-07-17T07:35:21.566Z,40.5
2018-07-17T07:36:11.653Z,40.3
2018-07-17T07:37:01.404Z,40.1
2018-07-17T07:37:51.764Z,39.9
2018-07-17T07:38:41.264Z,39.7
2018-07-17T07:39:31.627Z,39.5
2018-07-17T07:40:21.671Z,39.3
2018-07-17T07:41:11.986Z,39
2018-07-17T07:42:01.794Z,38.8
2018-07-17T07:42:52.549Z,38.6
2018-07-17T07:43:42.188Z,38.3
2018-07-17T07:44:32.254Z,38.1
2018-07-17T07:45:22.359Z,37.8
2018-07-17T07:46:11.829Z,37.5
2018-07-17T07:47:01.952Z,37.3
2018-07-17T07:47:52.550Z,37
2018-07-17T07:48:41.713Z,36.6
2018-07-17T07:49:32.633Z,36.3
2018-07-17T07:50:22.411Z,35.8
2018-07-17T07:51:12.492Z,35.3
2018-07-17T07:52:02.833Z,34.9
2018-07-17T07:52:52.610Z,34.5
2018-07-17T07:53:42.960Z,34.1
2018-07-17T07:54:33.053Z,33.7
2018-07-17T07:55:22.865Z,33.3
2018-07-17T07:56:13.149Z,32.9
2018-07-17T07:57:02.947Z,32.4
2018-07-17T07:57:53.286Z,32
2018-07-17T07:58:43.067Z,31.5
2018-07-17T07:59:33.401Z,31.1
2018-07-17T08:00:22.919Z,30.6
2018-07-17T08:01:12.998Z,30.2
2018-07-17T08:02:03.599Z,29.8
2018-07-17T08:02:53.676Z,29.5
2018-07-17T08:03:44.040Z,29.2
2018-07-17T08:04:33.222Z,28.9
2018-07-17T08:05:23.292Z,28.6
2018-07-17T08:06:14.063Z,28.4
2018-07-17T08:07:03.992Z,28.2
2018-07-17T08:07:54.031Z,28
2018-07-17T08:08:44.120Z,27.8
2018-07-17T08:09:33.922Z,27.5
2018-07-17T08:10:23.952Z,27.4
2018-07-17T08:11:14.302Z,27.2
2018-07-17T08:12:04.659Z,27
2018-07-17T08:12:54.456Z,26.8
2018-07-17T08:13:44.503Z,26.6
2018-07-17T08:14:34.023Z,26.4
2018-07-17T08:15:24.612Z,26.3
2018-07-17T08:16:14.712Z,26.1
2018-07-17T08:17:04.767Z,26
2018-07-17T08:17:54.822Z,25.8
2018-07-17T08:18:44.589Z,25.7
2018-07-17T08:19:34.930Z,25.6
2018-07-17T08:20:25.018Z,25.4
2018-07-17T08:21:14.515Z,25.3
2018-07-17T08:22:05.129Z,25.1
2018-07-17T08:22:54.925Z,25
2018-07-17T08:23:44.990Z,24.9
2018-07-17T08:24:35.336Z,24.8
2018-07-17T08:25:25.386Z,24.7
2018-07-17T08:26:15.459Z,24.6
2018-07-17T08:27:05.559Z,24.5
2018-07-17T08:27:55.562Z,24.4
2018-07-17T08:28:45.373Z,24.3
2018-07-17T08:29:35.522Z,24.3
2018-07-17T08:30:25.756Z,24.2
2018-07-17T08:31:15.878Z,24.1
2018-07-17T08:32:05.887Z,24.1
2018-07-17T08:32:55.975Z,24
2018-07-17T08:33:46.034Z,23.9
2018-07-17T08:34:36.116Z,23.9
2018-07-17T08:35:26.166Z,23.8
2018-07-17T08:36:15.700Z,23.8
2018-07-17T08:37:06.016Z,23.8
2018-07-17T08:37:56.103Z,23.7
2018-07-17T08:38:46.411Z,23.7
2018-07-17T08:39:36.216Z,23.7
2018-07-17T08:40:26.565Z,23.7
2018-07-17T08:41:16.668Z,23.7
2018-07-17T08:42:06.395Z,23.7
2018-07-17T08:42:56.776Z,23.7
2018-07-17T08:43:47.011Z,23.8
2018-07-17T08:44:36.887Z,23.8
2018-07-17T08:45:26.948Z,23.9
2018-07-17T08:46:16.556Z,23.9
2018-07-17T08:47:07.057Z,24
2018-07-17T08:47:56.861Z,24.1
2018-07-17T08:48:47.224Z,24.3
2018-07-17T08:49:37.266Z,24.4
2018-07-17T08:50:27.317Z,24.6
2018-07-17T08:51:17.103Z,24.8
2018-07-17T08:52:07.183Z,25
2018-07-17T08:52:57.616Z,25.3
2018-07-17T08:53:47.578Z,25.5
2018-07-17T08:54:38.410Z,25.8
2018-07-17T08:55:27.718Z,26
2018-07-17T08:56:17.510Z,26.3
2018-07-17T08:57:07.844Z,26.8
2018-07-17T08:57:57.641Z,27.1
2018-07-17T08:58:47.672Z,27.6
2018-07-17T08:59:37.775Z,28.1
2018-07-17T09:00:28.450Z,28.6
2018-07-17T09:01:17.611Z,29.1
2018-07-17T09:02:07.939Z,29.6
2018-07-17T09:02:57.747Z,30.2
2018-07-17T09:03:48.073Z,30.8
2018-07-17T09:04:38.143Z,31.3
2018-07-17T09:05:28.472Z,32
2018-07-17T09:06:18.548Z,32.8
2018-07-17T09:07:08.333Z,33.6
2018-07-17T09:07:58.655Z,34.6
2018-07-17T09:08:48.727Z,35.7
2018-07-17T09:09:38.799Z,36.8
2018-07-17T09:10:28.584Z,38
2018-07-17T09:11:18.918Z,39.3
2018-07-17T09:12:08.774Z,40.3
2018-07-17T09:12:58.894Z,41.3
2018-07-17T09:13:48.849Z,42.3
2018-07-17T09:14:39.186Z,43.2
2018-07-17T09:15:29.069Z,44.1
2018-07-17T09:16:19.046Z,44.8
2018-07-17T09:17:09.089Z,45.6
2018-07-17T09:17:59.433Z,46.2
2018-07-17T09:18:49.563Z,46.8
2018-07-17T09:19:39.561Z,47.4
2018-07-17T09:20:29.351Z,48
2018-07-17T09:21:19.703Z,48.6
2018-07-17T09:22:09.765Z,49.1
2018-07-17T09:22:59.551Z,49.6
2018-07-17T09:23:49.908Z,50.1
2018-07-17T09:24:38.848Z,50.6
2018-07-17T09:25:29.757Z,51.1
2018-07-17T09:26:20.073Z,51.8
2018-07-17T09:27:10.136Z,52.4
2018-07-17T09:28:00.192Z,53.1
2018-07-17T09:28:49.778Z,53.8
2018-07-17T09:29:40.064Z,54.4
2018-07-17T09:30:30.417Z,54.9
2018-07-17T09:31:20.485Z,55.6
2018-07-17T09:32:10.553Z,56.3
2018-07-17T09:33:00.606Z,57.1
2018-07-17T09:33:50.668Z,57.7
2018-07-17T09:34:40.711Z,58.4
2018-07-17T09:35:30.508Z,59.3
2018-07-17T09:36:20.298Z,60
2018-07-17T09:37:10.623Z,60.9
2018-07-17T09:38:00.983Z,63.8
2018-07-17T09:38:51.263Z,65.1
2018-07-17T09:39:41.106Z,61.4
2018-07-17T09:40:31.188Z,56.1
2018-07-17T09:41:21.229Z,49.8
2018-07-17T09:42:11.316Z,46.8
2018-07-17T09:43:01.354Z,46.1
2018-07-17T09:43:51.437Z,46.9
2018-07-17T09:44:41.509Z,48.5
2018-07-17T09:45:31.575Z,50.6
2018-07-17T09:46:21.638Z,53
2018-07-17T09:47:11.754Z,55.6
2018-07-17T09:48:01.487Z,58.4
2018-07-17T09:48:51.560Z,61.3
2018-07-17T09:49:41.882Z,66.2
2018-07-17T09:50:31.681Z,69.8
2018-07-17T09:51:22.069Z,67.3
2018-07-17T09:52:12.097Z,65.7
2018-07-17T09:53:02.154Z,63.8
2018-07-17T09:53:51.929Z,61.4
2018-07-17T09:54:41.772Z,59.8
2018-07-17T09:55:32.064Z,60.8
2018-07-17T09:56:22.138Z,63.3
2018-07-17T09:57:12.470Z,65.4
2018-07-17T09:58:02.560Z,66.4
2018-07-17T09:58:52.337Z,66.7
2018-07-17T09:59:42.382Z,66.2
2018-07-17T10:00:32.735Z,65.3
2018-07-17T10:01:22.543Z,64.6
2018-07-17T10:02:12.882Z,64.4
2018-07-17T10:03:02.925Z,64.9
2018-07-17T10:03:52.993Z,64.8
2018-07-17T10:04:43.291Z,63.8
2018-07-17T10:05:33.118Z,62.4
2018-07-17T10:06:23.141Z,61.3
2018-07-17T10:07:13.005Z,60.3
2018-07-17T10:08:03.319Z,59.7
2018-07-17T10:08:53.079Z,59.4
2018-07-17T10:09:43.454Z,59.2
2018-07-17T10:10:33.489Z,58.8
2018-07-17T10:11:23.563Z,58.1
2018-07-17T10:12:13.626Z,57.1
2018-07-17T10:13:03.699Z,56.1
2018-07-17T10:13:53.553Z,55.2
2018-07-17T10:14:43.590Z,54.5
2018-07-17T10:15:33.421Z,53.9
2018-07-17T10:16:23.948Z,53.4
2018-07-17T10:17:14.072Z,53.1
2018-07-17T10:18:04.095Z,52.6
2018-07-17T10:18:54.142Z,52.1
2018-07-17T10:19:43.931Z,51.6
2018-07-17T10:20:33.998Z,51.1
2018-07-17T10:21:24.364Z,50.6
2018-07-17T10:22:14.405Z,50.1
2018-07-17T10:23:04.485Z,49.9
2018-07-17T10:23:54.508Z,49.7
2018-07-17T10:24:44.647Z,49.6
2018-07-17T10:25:34.665Z,49.4
2018-07-17T10:26:25.127Z,49.6
2018-07-17T10:27:14.777Z,49.9
2018-07-17T10:28:04.572Z,50.4
2018-07-17T10:28:54.929Z,51.3
2018-07-17T10:30:35.030Z,53.4
2018-07-17T10:31:25.170Z,54.4
2018-07-17T10:32:15.879Z,55.3
2018-07-17T10:33:04.948Z,56.2
2018-07-17T10:33:55.299Z,57
2018-07-17T10:35:35.408Z,58.5
2018-07-17T10:36:25.477Z,57
2018-07-17T10:37:15.550Z,55.3
2018-07-17T10:38:05.635Z,53.4
2018-07-17T10:38:55.683Z,51.9
2018-07-17T10:39:45.733Z,51
2018-07-17T10:40:35.814Z,50.8
2018-07-17T10:41:25.602Z,50.9
2018-07-17T10:42:15.952Z,51.3
2018-07-17T10:43:56.060Z,52.7
2018-07-17T10:44:46.137Z,53.8
2018-07-17T10:45:35.920Z,55.8
2018-07-17T10:46:26.278Z,58.5
2018-07-17T10:47:16.340Z,61.3
2018-07-17T10:48:06.390Z,64.4
2018-07-17T10:48:56.444Z,66
2018-07-17T10:49:46.545Z,65.6
2018-07-17T10:50:36.583Z,64.6
2018-07-17T10:51:26.648Z,61.6
2018-07-17T10:52:16.704Z,58.6
2018-07-17T10:53:06.505Z,57.1
2018-07-17T10:53:56.566Z,57.4
2018-07-17T10:54:46.916Z,59.4
2018-07-17T10:55:36.685Z,60.8
2018-07-17T10:56:27.061Z,60.9
2018-07-17T10:57:17.116Z,60.6
2018-07-17T10:58:07.156Z,60.2
2018-07-17T10:58:57.243Z,60.1
2018-07-17T10:59:47.278Z,60.3
2018-07-17T11:00:37.063Z,60.8
2018-07-17T11:01:27.163Z,61.2
2018-07-17T11:02:17.475Z,61.3
2018-07-17T11:03:07.560Z,61.6
2018-07-17T11:03:57.602Z,61.9
2018-07-17T11:04:47.688Z,62.1
2018-07-17T11:05:37.778Z,62.2
2018-07-17T11:06:27.783Z,62.3
2018-07-17T11:07:17.882Z,62.7
2018-07-17T11:08:07.943Z,63.7
2018-07-17T11:08:57.525Z,64.7
2018-07-17T11:09:47.796Z,65.4
2018-07-17T11:10:38.122Z,66.1
2018-07-17T11:11:27.632Z,66.3
2018-07-17T11:12:18.242Z,66.4
2018-07-17T11:13:08.299Z,66.4
2018-07-17T11:13:58.127Z,66.3
2018-07-17T11:14:48.477Z,66.6
2018-07-17T11:15:38.231Z,66.3
2018-07-17T11:16:28.309Z,65.9
2018-07-17T11:17:18.631Z,66.1
2018-07-17T11:18:08.710Z,65.9
2018-07-17T11:18:58.792Z,64.8
2018-07-17T11:19:48.866Z,63.8
2018-07-17T11:20:38.894Z,63.6
2018-07-17T11:21:28.980Z,63.6
2018-07-17T11:22:18.764Z,63.3
2018-07-17T11:23:08.823Z,62.8
2018-07-17T11:23:58.905Z,62.1
2018-07-17T11:24:49.228Z,61.5
2018-07-17T11:25:38.546Z,61
2018-07-17T11:26:29.359Z,60.8
2018-07-17T11:27:18.848Z,60.4
2018-07-17T11:28:09.494Z,60.4
2018-07-17T11:28:59.553Z,60.6
2018-07-17T11:29:49.639Z,60.8
2018-07-17T11:30:39.690Z,60.9
2018-07-17T11:31:29.481Z,60.9
2018-07-17T11:32:19.540Z,60.5
2018-07-17T11:33:09.609Z,59.8
2018-07-17T11:33:59.930Z,60
2018-07-17T11:34:49.735Z,60.9
2018-07-17T11:35:40.072Z,61.4
2018-07-17T11:36:30.152Z,61.7
2018-07-17T11:37:20.195Z,61.6
2018-07-17T11:38:09.783Z,60.9
2018-07-17T11:39:00.316Z,61.1
2018-07-17T11:39:50.380Z,61.3
2018-07-17T11:40:40.219Z,61.1
2018-07-17T11:41:30.239Z,60.8
2018-07-17T11:42:20.598Z,60.4
2018-07-17T11:43:10.659Z,59.9
2018-07-17T11:44:00.726Z,59.5
2018-07-17T11:44:50.765Z,59.1
2018-07-17T11:45:40.848Z,58.9
2018-07-17T11:46:30.905Z,58.8
2018-07-17T11:47:20.700Z,58.4
2018-07-17T11:48:11.031Z,57.9
2018-07-17T11:49:01.093Z,57.4
2018-07-17T11:49:50.895Z,57.2
2018-07-17T11:50:41.301Z,56.8
2018-07-17T11:51:31.297Z,56.6
2018-07-17T11:52:21.081Z,56.6
2018-07-17T11:53:11.587Z,56.4
2018-07-17T11:54:01.234Z,56.3
2018-07-17T11:54:51.294Z,56.1
2018-07-17T11:55:40.802Z,56.1
2018-07-17T11:56:31.707Z,56
2018-07-17T11:57:21.478Z,56.1
2018-07-17T11:58:11.256Z,56.3
2018-07-17T11:59:02.687Z,56.2
2018-07-17T11:59:51.404Z,56.3
2018-07-17T12:00:41.745Z,56.1
2018-07-17T12:01:32.091Z,55.9
2018-07-17T12:02:21.651Z,55.5
2018-07-17T12:03:12.208Z,55
2018-07-17T12:04:02.004Z,54.4
2018-07-17T12:04:52.063Z,53.9
2018-07-17T12:05:42.337Z,53.4
2018-07-17T12:06:32.450Z,52.8
2018-07-17T12:07:22.532Z,52.3
2018-07-17T12:08:12.320Z,52
2018-07-17T12:09:02.653Z,51.6
2018-07-17T12:09:52.200Z,51.4
2018-07-17T12:10:42.224Z,51.3
2018-07-17T12:11:32.574Z,51.1
2018-07-17T12:12:23.069Z,50.7
2018-07-17T12:13:12.957Z,50.4
2018-07-17T12:14:03.034Z,50
2018-07-17T12:14:53.095Z,49.7
2018-07-17T12:15:43.188Z,49.4
2018-07-17T12:16:32.954Z,49.1
2018-07-17T12:17:23.280Z,48.9
2018-07-17T12:18:12.788Z,48.7
2018-07-17T12:19:03.454Z,48.4
2018-07-17T12:19:53.585Z,48.2
2018-07-17T12:20:43.279Z,48.1
2018-07-17T12:21:33.343Z,48
2018-07-17T12:22:23.695Z,48
2018-07-17T12:23:13.484Z,48.1
2018-07-17T12:24:03.540Z,48.1
2018-07-17T12:24:53.891Z,48.1
2018-07-17T12:25:43.931Z,48.1
2018-07-17T12:26:33.998Z,48.1
2018-07-17T12:27:23.804Z,48.1
2018-07-17T12:28:14.145Z,48.1
2018-07-17T12:29:04.213Z,47.9
2018-07-17T12:29:54.294Z,47.8
2018-07-17T12:30:44.337Z,47.8
2018-07-17T12:31:34.393Z,47.7
2018-07-17T12:32:24.188Z,47.6
2018-07-17T12:33:14.243Z,47.6
2018-07-17T12:34:04.330Z,47.4
2018-07-17T12:34:54.926Z,47.3
2018-07-17T12:35:44.721Z,47.2
2018-07-17T12:36:34.864Z,47.1
2018-07-17T12:37:24.325Z,46.9
2018-07-17T12:38:14.984Z,46.8
2018-07-17T12:39:05.052Z,46.7
2018-07-17T12:39:54.779Z,46.5
2018-07-17T12:40:44.269Z,46.3
2018-07-17T12:41:35.167Z,46.2
2018-07-17T12:42:24.972Z,46
2018-07-17T12:43:14.756Z,45.8
2018-07-17T12:44:05.112Z,45.6
2018-07-17T12:44:54.884Z,45.3
2018-07-17T12:45:45.208Z,45.1
2018-07-17T12:46:35.586Z,44.8
2018-07-17T12:47:25.352Z,44.6
2018-07-17T12:48:15.426Z,44.3
2018-07-17T12:49:05.215Z,44
2018-07-17T12:49:55.810Z,43.8
2018-07-17T12:50:45.890Z,43.5
2018-07-17T12:51:35.936Z,43.3
2018-07-17T12:52:25.719Z,43.1
2018-07-17T12:53:16.072Z,42.8
2018-07-17T12:54:06.141Z,42.6
2018-07-17T12:54:55.660Z,42.3
2018-07-17T12:55:46.285Z,42.1
2018-07-17T12:56:36.335Z,41.9
2018-07-17T12:57:26.464Z,41.7
2018-07-17T12:58:16.502Z,41.6
2018-07-17T12:59:06.247Z,41.4
2018-07-17T12:59:55.778Z,41.3
2018-07-17T13:00:46.703Z,41.3
2018-07-17T13:01:36.769Z,41.2
2018-07-17T13:02:26.521Z,41.1
2018-07-17T13:03:16.866Z,40.9
2018-07-17T13:04:06.648Z,40.8
2018-07-17T13:04:57.000Z,40.5
2018-07-17T13:05:46.499Z,40.3
2018-07-17T13:06:36.847Z,39.9
2018-07-17T13:07:27.222Z,39.6
2018-07-17T13:08:16.972Z,39.4
2018-07-17T13:09:07.061Z,39.3
2018-07-17T13:09:57.395Z,39.3
2018-07-17T13:10:47.445Z,39.1
2018-07-17T13:11:37.212Z,39.1
2018-07-17T13:12:27.324Z,39.1
2018-07-17T13:13:17.641Z,39
2018-07-17T13:14:07.687Z,38.9
2018-07-17T13:14:57.800Z,38.9
2018-07-17T13:15:47.850Z,38.9
2018-07-17T13:16:37.889Z,38.9
2018-07-17T13:17:27.524Z,38.9
2018-07-17T13:18:18.035Z,39
2018-07-17T13:19:08.085Z,39.1
2018-07-17T13:19:58.147Z,39.2
2018-07-17T13:20:48.201Z,39.4
2018-07-17T13:21:38.263Z,39.6
2018-07-17T13:22:28.063Z,40
2018-07-17T13:23:18.395Z,40.3
2018-07-17T13:24:07.904Z,40.6
2018-07-17T13:24:58.529Z,40.8
2018-07-17T13:25:48.597Z,41.1
2018-07-17T13:26:38.661Z,41.3
2018-07-17T13:27:28.715Z,41.7
2018-07-17T13:28:18.498Z,42.1
2018-07-17T13:29:08.852Z,42.6
2018-07-17T13:29:58.918Z,43.3
2018-07-17T13:30:48.716Z,44.1
2018-07-17T13:31:39.078Z,45.1
2018-07-17T13:32:29.105Z,45.9
2018-07-17T13:33:18.905Z,46.5
2018-07-17T13:34:09.254Z,47.1
2018-07-17T13:34:59.320Z,47.4
2018-07-17T13:35:49.084Z,47.8
2018-07-17T13:36:39.445Z,47.9
2018-07-17T13:37:29.499Z,48.2
2018-07-17T13:38:19.610Z,48.3
2018-07-17T13:39:09.907Z,48.4
2018-07-17T13:39:59.443Z,48.4
2018-07-17T13:40:49.790Z,48.3
2018-07-17T13:41:39.838Z,48.4
2018-07-17T13:42:29.618Z,48.6
2018-07-17T13:43:19.975Z,48.9
2018-07-17T13:44:09.757Z,49.1
2018-07-17T13:44:59.841Z,49.1
2018-07-17T13:45:50.163Z,49.1
2018-07-17T13:46:39.661Z,49
2018-07-17T13:47:30.282Z,49
2018-07-17T13:48:20.079Z,49.1
2018-07-17T13:49:10.410Z,49.1
2018-07-17T13:50:00.715Z,49.1
2018-07-17T13:50:50.287Z,49.1
2018-07-17T13:51:40.603Z,49.1
2018-07-17T13:52:30.418Z,49.1
2018-07-17T13:53:20.757Z,48.9
2018-07-17T13:54:10.812Z,48.8
2018-07-17T13:55:00.873Z,48.8
2018-07-17T13:55:50.950Z,48.8
2018-07-17T13:56:40.998Z,48.8
2018-07-17T13:57:31.072Z,48.8
2018-07-17T13:58:20.849Z,48.8
2018-07-17T13:59:11.240Z,48.7
2018-07-17T14:00:01.684Z,48.6
2018-07-17T14:00:51.332Z,48.6
2018-07-17T14:01:41.376Z,48.9
2018-07-17T14:02:31.763Z,49.3
2018-07-17T14:03:21.227Z,49.9
2018-07-17T14:04:11.586Z,50.4
2018-07-17T14:05:01.657Z,50.9
2018-07-17T14:05:51.717Z,51.1
2018-07-17T14:06:41.489Z,51.3
2018-07-17T14:07:31.832Z,51.4
2018-07-17T14:08:21.885Z,51.4
2018-07-17T14:09:11.663Z,51.3
2018-07-17T14:10:01.765Z,51.3
2018-07-17T14:10:52.092Z,51.1
2018-07-17T14:11:41.323Z,51.1
2018-07-17T14:12:31.972Z,51
2018-07-17T14:13:22.079Z,50.8
2018-07-17T14:14:12.369Z,50.6
2018-07-17T14:15:02.504Z,50.4
2018-07-17T14:15:52.475Z,50.1
2018-07-17T14:16:42.010Z,49.8
2018-07-17T14:17:33.142Z,49.6
2018-07-17T14:18:22.437Z,49.6
2018-07-17T14:19:12.762Z,49.4
2018-07-17T14:20:02.807Z,49.3
2018-07-17T14:20:52.411Z,49.1
2018-07-17T14:21:42.926Z,48.9
2018-07-17T14:22:32.742Z,48.7
2018-07-17T14:23:22.523Z,48.6
2018-07-17T14:24:13.123Z,48.4
2018-07-17T14:25:03.211Z,48.1
2018-07-17T14:25:53.265Z,48
2018-07-17T14:26:43.044Z,47.8
2018-07-17T14:27:33.376Z,47.6
2018-07-17T14:28:23.481Z,47.4
2018-07-17T14:29:13.503Z,47.1
2018-07-17T14:30:03.355Z,46.9
2018-07-17T14:30:53.387Z,46.7
2018-07-17T14:31:43.758Z,46.5
2018-07-17T14:32:33.820Z,46.3
2018-07-17T14:33:23.840Z,46.1
2018-07-17T14:34:13.882Z,45.8
2018-07-17T14:35:03.694Z,45.6
2018-07-17T14:35:54.162Z,45.4
2018-07-17T14:36:44.089Z,45.3
2018-07-17T14:37:34.159Z,45.1
2018-07-17T14:38:23.934Z,44.9
2018-07-17T14:39:14.275Z,44.6
2018-07-17T14:40:04.346Z,44.4
2018-07-17T14:40:54.144Z,44.1
2018-07-17T14:41:44.762Z,43.9
2018-07-17T14:42:34.333Z,43.8
2018-07-17T14:43:24.598Z,43.6
2018-07-17T14:44:14.402Z,43.4
2018-07-17T14:45:04.163Z,43.3
2018-07-17T14:45:54.815Z,43.2
2018-07-17T14:46:44.587Z,43.1
2018-07-17T14:47:34.919Z,42.9
2018-07-17T14:48:25.474Z,42.8
2018-07-17T14:49:15.112Z,42.6
2018-07-17T14:50:05.130Z,42.6
2018-07-17T14:50:54.912Z,42.6
2018-07-17T14:51:45.258Z,42.5
2018-07-17T14:52:35.043Z,42.5
2018-07-17T14:53:25.414Z,42.5
2018-07-17T14:54:15.251Z,42.4
2018-07-17T14:55:05.533Z,42.3
2018-07-17T14:55:55.303Z,42.4
2018-07-17T14:56:45.632Z,42.4
2018-07-17T14:57:35.711Z,42.4
2018-07-17T14:58:25.767Z,42.4
2018-07-17T14:59:15.865Z,42.3
2018-07-17T15:00:05.843Z,42.2
2018-07-17T15:00:55.961Z,42.1
2018-07-17T15:01:46.013Z,42.1
2018-07-17T15:02:36.157Z,42
2018-07-17T15:03:25.875Z,41.9
2018-07-17T15:04:16.237Z,41.9
2018-07-17T15:05:06.284Z,41.8
2018-07-17T15:05:56.349Z,41.8
2018-07-17T15:06:46.412Z,41.8
2018-07-17T15:07:35.919Z,41.8
2018-07-17T15:08:26.102Z,41.7
2018-07-17T15:09:16.609Z,41.6
2018-07-17T15:10:06.679Z,41.6
2018-07-17T15:10:56.457Z,41.5
2018-07-17T15:11:46.803Z,41.4
2018-07-17T15:12:36.932Z,41.3
2018-07-17T15:13:26.938Z,41.3
2018-07-17T15:14:16.993Z,41.2
2018-07-17T15:15:06.785Z,41.1
2018-07-17T15:15:56.949Z,41
2018-07-17T15:16:47.210Z,40.9
2018-07-17T15:17:37.250Z,40.8
2018-07-17T15:18:27.341Z,40.7
2018-07-17T15:19:17.411Z,40.6
2018-07-17T15:20:07.443Z,40.6
2018-07-17T15:20:57.539Z,40.6
2018-07-17T15:21:47.646Z,40.5
2018-07-17T15:22:37.646Z,40.4
2018-07-17T15:23:27.148Z,40.4
2018-07-17T15:24:17.797Z,40.3
2018-07-17T15:25:07.828Z,40.2
2018-07-17T15:25:57.627Z,40.1
2018-07-17T15:26:47.965Z,40.1
2018-07-17T15:27:37.829Z,39.9
2018-07-17T15:28:27.541Z,39.8
2018-07-17T15:29:18.193Z,39.7
2018-07-17T15:30:08.210Z,39.6
2018-07-17T15:30:58.017Z,39.5
2018-07-17T15:31:48.063Z,39.4
2018-07-17T15:32:38.400Z,39.3
2018-07-17T15:33:28.469Z,39.2
2018-07-17T15:34:18.261Z,39.2
2018-07-17T15:35:08.930Z,39.1
2018-07-17T15:35:58.683Z,39
2018-07-17T15:36:48.445Z,38.9
2018-07-17T15:37:37.971Z,38.8
2018-07-17T15:38:29.224Z,38.6
2018-07-17T15:39:18.916Z,38.5
2018-07-17T15:40:08.980Z,38.4
2018-07-17T15:40:59.066Z,38.3
2018-07-17T15:41:48.829Z,38.1
2018-07-17T15:42:38.627Z,38.1
2018-07-17T15:43:29.241Z,37.9
2018-07-17T15:44:19.310Z,37.9
2018-07-17T15:45:09.389Z,37.8
2018-07-17T15:45:59.199Z,37.7
2018-07-17T15:46:49.501Z,37.5
2018-07-17T15:47:39.586Z,37.4
2018-07-17T15:48:29.089Z,37.3
2018-07-17T15:49:19.767Z,37.1
2018-07-17T15:50:09.767Z,37.1
2018-07-17T15:50:59.838Z,36.9
2018-07-17T15:51:49.891Z,36.9
2018-07-17T15:52:39.682Z,36.7
2018-07-17T15:53:30.024Z,36.6
2018-07-17T15:54:20.111Z,36.6
2018-07-17T15:55:09.884Z,36.4
2018-07-17T15:55:59.661Z,36.3
2018-07-17T15:56:50.278Z,36.2
2018-07-17T15:57:40.403Z,36.1
2018-07-17T15:58:30.400Z,35.9
2018-07-17T15:59:20.477Z,35.8
2018-07-17T16:00:10.533Z,35.7
2018-07-17T16:01:00.639Z,35.6
2018-07-17T16:01:50.388Z,35.4
2018-07-17T16:02:40.719Z,35.3
2018-07-17T16:03:30.777Z,35.1
2018-07-17T16:04:20.577Z,35
2018-07-17T16:05:10.934Z,34.8
2018-07-17T16:06:01.109Z,34.7
2018-07-17T16:06:51.032Z,34.5
2018-07-17T16:07:41.129Z,34.3
2018-07-17T16:08:31.158Z,34.2
2018-07-17T16:09:21.227Z,34
2018-07-17T16:10:11.545Z,33.9
2018-07-17T16:11:01.354Z,33.7
2018-07-17T16:11:51.470Z,33.6
2018-07-17T16:12:41.490Z,33.4
2018-07-17T16:13:32.592Z,33.3
2018-07-17T16:14:25.888Z,33.1
2018-07-17T16:15:11.674Z,32.9
2018-07-17T16:16:01.482Z,32.8
2018-07-17T16:16:51.804Z,32.6
2018-07-17T16:17:41.884Z,32.4
2018-07-17T16:18:31.664Z,32.2
2018-07-17T16:19:22.009Z,32.1
2018-07-17T16:20:12.391Z,31.9
2018-07-17T16:21:01.948Z,31.7
2018-07-17T16:21:51.673Z,31.6
2018-07-17T16:22:42.284Z,31.4
2018-07-17T16:23:32.324Z,31.3
2018-07-17T16:24:22.381Z,31.1
2018-07-17T16:25:12.458Z,30.9
2018-07-17T16:26:02.268Z,30.8
2018-07-17T16:26:52.316Z,30.6
2018-07-17T16:27:42.375Z,30.4
2018-07-17T16:28:31.901Z,30.3
2018-07-17T16:29:22.300Z,30.2
2018-07-17T16:30:12.855Z,30.1
2018-07-17T16:31:02.944Z,29.9
2018-07-17T16:31:53.020Z,29.8
2018-07-17T16:32:42.771Z,29.6
2018-07-17T16:33:33.126Z,29.4
2018-07-17T16:34:23.169Z,29.4
2018-07-17T16:35:12.977Z,29.2
2018-07-17T16:36:03.310Z,29.1
2018-07-17T16:36:53.280Z,28.9
2018-07-17T16:37:43.147Z,28.8
2018-07-17T16:38:33.481Z,28.8
2018-07-17T16:39:23.543Z,28.6
2018-07-17T16:40:13.633Z,28.5
2018-07-17T16:41:03.701Z,28.4
2018-07-17T16:41:53.722Z,28.3
2018-07-17T16:42:43.813Z,28.2
2018-07-17T16:43:33.895Z,28.2
2018-07-17T16:44:23.932Z,28.1
2018-07-17T16:45:13.988Z,27.9
2018-07-17T16:46:04.079Z,27.9
2018-07-17T16:46:54.116Z,27.8
2018-07-17T16:47:43.434Z,27.7
2018-07-17T16:48:33.995Z,27.6
2018-07-17T16:49:23.761Z,27.6
2018-07-17T16:50:14.389Z,27.5
2018-07-17T16:51:04.447Z,27.4
2018-07-17T16:51:54.229Z,27.4
2018-07-17T16:52:44.575Z,27.3
2018-07-17T16:53:34.356Z,27.2
2018-07-17T16:54:24.722Z,27.1
2018-07-17T16:55:14.800Z,27.1
2018-07-17T16:56:04.835Z,27
2018-07-17T16:56:54.608Z,26.9
2018-07-17T16:57:44.411Z,26.9
2018-07-17T16:58:34.765Z,26.8
2018-07-17T16:59:24.550Z,26.8
2018-07-17T17:00:15.163Z,26.7
2018-07-17T17:01:04.946Z,26.6
2018-07-17T17:01:55.289Z,26.6
2018-07-17T17:02:45.401Z,26.6
2018-07-17T17:03:35.397Z,26.5
2018-07-17T17:04:25.477Z,26.4
2018-07-17T17:05:15.048Z,26.3
2018-07-17T17:06:05.613Z,26.3
2018-07-17T17:06:55.649Z,26.3
2018-07-17T17:07:45.707Z,26.2
2018-07-17T17:08:35.785Z,26.1
2018-07-17T17:09:25.581Z,26.1
2018-07-17T17:10:15.654Z,26.1
2018-07-17T17:11:05.769Z,26
2018-07-17T17:11:55.480Z,25.9
2018-07-17T17:12:46.096Z,25.9
2018-07-17T17:13:36.184Z,25.8
2018-07-17T17:14:26.257Z,25.7